sensor_id;sensor_type;location;lat;lon;timestamp;P1;durP1;ratioP1;P2;durP2;ratioP2
69998;SDS011;57339;52.156;5.372;2024-03-22T00:00:56;58.85;;;25.20;;
69998;SDS011;57339;52.156;5.372;2024-03-22T00:03:22;51.45;;;23.88;;
69998;SDS011;57339;52.156;5.372;2024-03-22T00:05:48;43.97;;;19.13;;
69998;SDS011;57339;52.156;5.372;2024-03-22T00:08:17;57.55;;;24.20;;
69998;SDS011;57339;52.156;5.372;2024-03-22T00:10:43;51.35;;;23.77;;
69998;SDS011;57339;52.156;5.372;2024-03-22T00:13:11;52.60;;;21.33;;
69998;SDS011;57339;52.156;5.372;2024-03-22T00:15:37;53.40;;;25.13;;
69998;SDS011;57339;52.156;5.372;2024-03-22T00:18:03;56.53;;;25.85;;
69998;SDS011;57339;52.156;5.372;2024-03-22T00:20:29;54.60;;;24.80;;
69998;SDS011;57339;52.156;5.372;2024-03-22T00:22:55;51.43;;;23.23;;
69998;SDS011;57339;52.156;5.372;2024-03-22T00:25:21;41.97;;;19.13;;
69998;SDS011;57339;52.156;5.372;2024-03-22T00:27:47;55.97;;;24.30;;
69998;SDS011;57339;52.156;5.372;2024-03-22T00:30:13;55.20;;;24.03;;
69998;SDS011;57339;52.156;5.372;2024-03-22T00:32:42;56.45;;;25.15;;
69998;SDS011;57339;52.156;5.372;2024-03-22T00:35:08;57.42;;;25.48;;
69998;SDS011;57339;52.156;5.372;2024-03-22T00:37:33;55.50;;;25.80;;
69998;SDS011;57339;52.156;5.372;2024-03-22T00:39:59;58.17;;;25.48;;
69998;SDS011;57339;52.156;5.372;2024-03-22T00:42:26;50.72;;;22.55;;
69998;SDS011;57339;52.156;5.372;2024-03-22T00:44:51;53.42;;;23.05;;
69998;SDS011;57339;52.156;5.372;2024-03-22T00:47:17;56.20;;;25.00;;
69998;SDS011;57339;52.156;5.372;2024-03-22T00:49:43;60.13;;;26.95;;
69998;SDS011;57339;52.156;5.372;2024-03-22T00:52:10;57.47;;;26.40;;
69998;SDS011;57339;52.156;5.372;2024-03-22T00:54:36;59.07;;;24.70;;
69998;SDS011;57339;52.156;5.372;2024-03-22T00:57:02;56.90;;;24.03;;
69998;SDS011;57339;52.156;5.372;2024-03-22T00:59:28;60.28;;;25.30;;
69998;SDS011;57339;52.156;5.372;2024-03-22T01:01:54;60.10;;;25.48;;
69998;SDS011;57339;52.156;5.372;2024-03-22T01:04:20;55.87;;;25.10;;
69998;SDS011;57339;52.156;5.372;2024-03-22T01:06:46;56.00;;;24.52;;
69998;SDS011;57339;52.156;5.372;2024-03-22T01:09:12;58.50;;;25.45;;
69998;SDS011;57339;52.156;5.372;2024-03-22T01:11:37;60.57;;;27.47;;
69998;SDS011;57339;52.156;5.372;2024-03-22T01:14:04;67.47;;;28.15;;
69998;SDS011;57339;52.156;5.372;2024-03-22T01:16:30;59.97;;;27.27;;
69998;SDS011;57339;52.156;5.372;2024-03-22T01:18:56;58.58;;;25.02;;
69998;SDS011;57339;52.156;5.372;2024-03-22T01:21:21;63.87;;;27.83;;
69998;SDS011;57339;52.156;5.372;2024-03-22T01:23:47;57.45;;;25.58;;
69998;SDS011;57339;52.156;5.372;2024-03-22T01:26:13;58.33;;;26.23;;
69998;SDS011;57339;52.156;5.372;2024-03-22T01:28:40;53.97;;;24.73;;
69998;SDS011;57339;52.156;5.372;2024-03-22T01:31:06;59.40;;;25.67;;
69998;SDS011;57339;52.156;5.372;2024-03-22T01:33:32;55.50;;;24.50;;
69998;SDS011;57339;52.156;5.372;2024-03-22T01:35:57;59.83;;;24.88;;
69998;SDS011;57339;52.156;5.372;2024-03-22T01:38:23;50.87;;;23.83;;
69998;SDS011;57339;52.156;5.372;2024-03-22T01:40:49;57.28;;;25.48;;
69998;SDS011;57339;52.156;5.372;2024-03-22T01:43:15;50.55;;;22.30;;
69998;SDS011;57339;52.156;5.372;2024-03-22T01:45:41;53.17;;;24.10;;
69998;SDS011;57339;52.156;5.372;2024-03-22T01:48:07;54.83;;;23.58;;
69998;SDS011;57339;52.156;5.372;2024-03-22T01:50:33;50.33;;;21.75;;
69998;SDS011;57339;52.156;5.372;2024-03-22T01:53:00;53.45;;;23.42;;
69998;SDS011;57339;52.156;5.372;2024-03-22T01:55:27;42.37;;;17.13;;
69998;SDS011;57339;52.156;5.372;2024-03-22T01:57:53;55.63;;;22.70;;
69998;SDS011;57339;52.156;5.372;2024-03-22T02:00:19;52.53;;;24.17;;
69998;SDS011;57339;52.156;5.372;2024-03-22T02:02:45;45.75;;;20.60;;
69998;SDS011;57339;52.156;5.372;2024-03-22T02:05:11;52.30;;;22.97;;
69998;SDS011;57339;52.156;5.372;2024-03-22T02:07:38;47.20;;;22.47;;
69998;SDS011;57339;52.156;5.372;2024-03-22T02:10:04;55.13;;;25.27;;
69998;SDS011;57339;52.156;5.372;2024-03-22T02:12:30;45.55;;;19.17;;
69998;SDS011;57339;52.156;5.372;2024-03-22T02:14:59;41.08;;;18.55;;
69998;SDS011;57339;52.156;5.372;2024-03-22T02:17:27;52.27;;;21.93;;
69998;SDS011;57339;52.156;5.372;2024-03-22T02:19:52;49.78;;;21.35;;
69998;SDS011;57339;52.156;5.372;2024-03-22T02:22:18;52.95;;;24.88;;
69998;SDS011;57339;52.156;5.372;2024-03-22T02:24:44;51.53;;;23.60;;
69998;SDS011;57339;52.156;5.372;2024-03-22T02:27:10;55.83;;;25.13;;
69998;SDS011;57339;52.156;5.372;2024-03-22T02:29:36;59.88;;;26.42;;
69998;SDS011;57339;52.156;5.372;2024-03-22T02:32:02;66.60;;;26.80;;
69998;SDS011;57339;52.156;5.372;2024-03-22T02:34:28;62.38;;;26.83;;
69998;SDS011;57339;52.156;5.372;2024-03-22T02:36:54;57.07;;;25.83;;
69998;SDS011;57339;52.156;5.372;2024-03-22T02:39:20;48.03;;;19.63;;
69998;SDS011;57339;52.156;5.372;2024-03-22T02:41:46;65.13;;;28.35;;
69998;SDS011;57339;52.156;5.372;2024-03-22T02:44:12;72.43;;;30.52;;
69998;SDS011;57339;52.156;5.372;2024-03-22T02:46:38;71.63;;;30.57;;
69998;SDS011;57339;52.156;5.372;2024-03-22T02:49:04;66.43;;;28.17;;
69998;SDS011;57339;52.156;5.372;2024-03-22T02:51:30;74.22;;;30.52;;
69998;SDS011;57339;52.156;5.372;2024-03-22T02:53:56;66.38;;;26.33;;
69998;SDS011;57339;52.156;5.372;2024-03-22T02:56:22;73.90;;;31.27;;
69998;SDS011;57339;52.156;5.372;2024-03-22T02:58:49;70.22;;;28.77;;
69998;SDS011;57339;52.156;5.372;2024-03-22T03:01:15;66.60;;;26.75;;
69998;SDS011;57339;52.156;5.372;2024-03-22T03:03:41;66.55;;;26.52;;
69998;SDS011;57339;52.156;5.372;2024-03-22T03:06:07;74.47;;;28.43;;
69998;SDS011;57339;52.156;5.372;2024-03-22T03:08:32;71.07;;;28.30;;
69998;SDS011;57339;52.156;5.372;2024-03-22T03:10:58;74.20;;;31.20;;
69998;SDS011;57339;52.156;5.372;2024-03-22T03:13:24;69.50;;;28.53;;
69998;SDS011;57339;52.156;5.372;2024-03-22T03:15:50;69.75;;;28.45;;
69998;SDS011;57339;52.156;5.372;2024-03-22T03:18:16;67.50;;;28.88;;
69998;SDS011;57339;52.156;5.372;2024-03-22T03:20:42;62.87;;;26.37;;
69998;SDS011;57339;52.156;5.372;2024-03-22T03:23:08;65.28;;;27.85;;
69998;SDS011;57339;52.156;5.372;2024-03-22T03:25:34;72.55;;;28.55;;
69998;SDS011;57339;52.156;5.372;2024-03-22T03:28:00;65.30;;;28.43;;
69998;SDS011;57339;52.156;5.372;2024-03-22T03:30:26;58.53;;;23.67;;
69998;SDS011;57339;52.156;5.372;2024-03-22T03:32:52;58.70;;;24.77;;
69998;SDS011;57339;52.156;5.372;2024-03-22T03:35:18;65.07;;;28.55;;
69998;SDS011;57339;52.156;5.372;2024-03-22T03:37:44;64.33;;;24.90;;
69998;SDS011;57339;52.156;5.372;2024-03-22T03:40:12;60.42;;;26.30;;
69998;SDS011;57339;52.156;5.372;2024-03-22T03:42:38;71.85;;;28.52;;
69998;SDS011;57339;52.156;5.372;2024-03-22T03:45:04;62.50;;;23.83;;
69998;SDS011;57339;52.156;5.372;2024-03-22T03:47:30;64.22;;;26.25;;
69998;SDS011;57339;52.156;5.372;2024-03-22T03:49:56;67.93;;;26.85;;
69998;SDS011;57339;52.156;5.372;2024-03-22T03:52:22;47.33;;;18.98;;
69998;SDS011;57339;52.156;5.372;2024-03-22T03:54:48;64.30;;;24.97;;
69998;SDS011;57339;52.156;5.372;2024-03-22T03:57:14;62.28;;;24.05;;
69998;SDS011;57339;52.156;5.372;2024-03-22T03:59:43;63.40;;;22.30;;
69998;SDS011;57339;52.156;5.372;2024-03-22T04:02:08;59.23;;;23.27;;
69998;SDS011;57339;52.156;5.372;2024-03-22T04:04:34;61.65;;;23.70;;
69998;SDS011;57339;52.156;5.372;2024-03-22T04:07:00;52.00;;;19.50;;
69998;SDS011;57339;52.156;5.372;2024-03-22T04:09:26;58.77;;;22.03;;
69998;SDS011;57339;52.156;5.372;2024-03-22T04:11:52;51.47;;;19.58;;
69998;SDS011;57339;52.156;5.372;2024-03-22T04:14:18;50.47;;;20.17;;
69998;SDS011;57339;52.156;5.372;2024-03-22T04:16:44;62.75;;;23.00;;
69998;SDS011;57339;52.156;5.372;2024-03-22T04:19:11;50.87;;;19.27;;
69998;SDS011;57339;52.156;5.372;2024-03-22T04:21:37;47.83;;;18.08;;
69998;SDS011;57339;52.156;5.372;2024-03-22T04:24:03;58.22;;;22.27;;
69998;SDS011;57339;52.156;5.372;2024-03-22T04:26:29;51.60;;;18.60;;
69998;SDS011;57339;52.156;5.372;2024-03-22T04:28:55;59.80;;;22.13;;
69998;SDS011;57339;52.156;5.372;2024-03-22T04:31:21;55.47;;;20.42;;
69998;SDS011;57339;52.156;5.372;2024-03-22T04:33:51;40.20;;;13.40;;
69998;SDS011;57339;52.156;5.372;2024-03-22T04:36:53;53.17;;;20.40;;
69998;SDS011;57339;52.156;5.372;2024-03-22T04:39:28;47.33;;;16.58;;
69998;SDS011;57339;52.156;5.372;2024-03-22T04:41:55;50.58;;;20.40;;
69998;SDS011;57339;52.156;5.372;2024-03-22T04:44:27;41.60;;;15.63;;
69998;SDS011;57339;52.156;5.372;2024-03-22T04:47:29;51.22;;;20.95;;
69998;SDS011;57339;52.156;5.372;2024-03-22T04:49:56;57.47;;;21.33;;
69998;SDS011;57339;52.156;5.372;2024-03-22T04:52:23;54.67;;;21.10;;
69998;SDS011;57339;52.156;5.372;2024-03-22T04:54:49;47.92;;;18.85;;
69998;SDS011;57339;52.156;5.372;2024-03-22T04:57:18;52.25;;;19.00;;
69998;SDS011;57339;52.156;5.372;2024-03-22T04:59:52;45.10;;;15.80;;
69998;SDS011;57339;52.156;5.372;2024-03-22T05:02:19;44.30;;;17.53;;
69998;SDS011;57339;52.156;5.372;2024-03-22T05:04:51;45.85;;;17.67;;
69998;SDS011;57339;52.156;5.372;2024-03-22T05:07:18;50.78;;;18.88;;
69998;SDS011;57339;52.156;5.372;2024-03-22T05:09:43;52.95;;;19.20;;
69998;SDS011;57339;52.156;5.372;2024-03-22T05:12:09;46.17;;;18.87;;
69998;SDS011;57339;52.156;5.372;2024-03-22T05:14:35;38.08;;;14.73;;
69998;SDS011;57339;52.156;5.372;2024-03-22T05:17:01;49.35;;;19.92;;
69998;SDS011;57339;52.156;5.372;2024-03-22T05:19:27;51.22;;;19.55;;
69998;SDS011;57339;52.156;5.372;2024-03-22T05:21:53;43.37;;;18.33;;
69998;SDS011;57339;52.156;5.372;2024-03-22T05:24:19;55.63;;;20.75;;
69998;SDS011;57339;52.156;5.372;2024-03-22T05:26:44;52.28;;;16.75;;
69998;SDS011;57339;52.156;5.372;2024-03-22T05:29:10;55.93;;;22.47;;
69998;SDS011;57339;52.156;5.372;2024-03-22T05:31:45;41.83;;;16.98;;
69998;SDS011;57339;52.156;5.372;2024-03-22T05:34:12;37.58;;;15.65;;
69998;SDS011;57339;52.156;5.372;2024-03-22T05:36:38;53.58;;;21.75;;
69998;SDS011;57339;52.156;5.372;2024-03-22T05:39:04;60.13;;;22.50;;
69998;SDS011;57339;52.156;5.372;2024-03-22T05:41:30;59.65;;;23.70;;
69998;SDS011;57339;52.156;5.372;2024-03-22T05:43:56;53.03;;;19.85;;
69998;SDS011;57339;52.156;5.372;2024-03-22T05:46:22;60.43;;;25.27;;
69998;SDS011;57339;52.156;5.372;2024-03-22T05:48:47;53.83;;;22.63;;
69998;SDS011;57339;52.156;5.372;2024-03-22T05:51:14;45.05;;;19.23;;
69998;SDS011;57339;52.156;5.372;2024-03-22T05:53:40;56.50;;;23.48;;
69998;SDS011;57339;52.156;5.372;2024-03-22T05:56:05;50.60;;;19.80;;
69998;SDS011;57339;52.156;5.372;2024-03-22T05:58:31;46.30;;;19.35;;
69998;SDS011;57339;52.156;5.372;2024-03-22T06:00:57;47.50;;;18.17;;
69998;SDS011;57339;52.156;5.372;2024-03-22T06:03:23;43.07;;;18.67;;
69998;SDS011;57339;52.156;5.372;2024-03-22T06:05:49;48.67;;;18.48;;
69998;SDS011;57339;52.156;5.372;2024-03-22T06:08:15;50.28;;;19.13;;
69998;SDS011;57339;52.156;5.372;2024-03-22T06:10:43;43.53;;;16.53;;
69998;SDS011;57339;52.156;5.372;2024-03-22T06:13:09;54.33;;;20.88;;
69998;SDS011;57339;52.156;5.372;2024-03-22T06:15:34;48.65;;;19.20;;
69998;SDS011;57339;52.156;5.372;2024-03-22T06:18:00;52.80;;;19.53;;
69998;SDS011;57339;52.156;5.372;2024-03-22T06:20:26;50.63;;;20.27;;
69998;SDS011;57339;52.156;5.372;2024-03-22T06:22:52;56.17;;;23.60;;
69998;SDS011;57339;52.156;5.372;2024-03-22T06:25:18;53.27;;;22.60;;
69998;SDS011;57339;52.156;5.372;2024-03-22T06:27:44;58.70;;;23.50;;
69998;SDS011;57339;52.156;5.372;2024-03-22T06:30:10;47.50;;;18.25;;
69998;SDS011;57339;52.156;5.372;2024-03-22T06:32:36;37.58;;;15.45;;
69998;SDS011;57339;52.156;5.372;2024-03-22T06:35:02;48.73;;;20.93;;
69998;SDS011;57339;52.156;5.372;2024-03-22T06:37:28;51.40;;;20.48;;
69998;SDS011;57339;52.156;5.372;2024-03-22T06:39:54;46.55;;;18.70;;
69998;SDS011;57339;52.156;5.372;2024-03-22T06:42:20;56.60;;;21.63;;
69998;SDS011;57339;52.156;5.372;2024-03-22T06:44:46;46.50;;;18.65;;
69998;SDS011;57339;52.156;5.372;2024-03-22T06:47:12;40.45;;;16.92;;
69998;SDS011;57339;52.156;5.372;2024-03-22T06:49:38;47.97;;;19.33;;
69998;SDS011;57339;52.156;5.372;2024-03-22T06:52:04;42.37;;;17.83;;
69998;SDS011;57339;52.156;5.372;2024-03-22T06:54:30;36.97;;;15.80;;
69998;SDS011;57339;52.156;5.372;2024-03-22T06:56:56;45.80;;;17.83;;
69998;SDS011;57339;52.156;5.372;2024-03-22T06:59:22;36.73;;;15.00;;
69998;SDS011;57339;52.156;5.372;2024-03-22T07:01:48;44.90;;;17.45;;
69998;SDS011;57339;52.156;5.372;2024-03-22T07:04:14;43.03;;;16.90;;
69998;SDS011;57339;52.156;5.372;2024-03-22T07:06:39;39.33;;;15.57;;
69998;SDS011;57339;52.156;5.372;2024-03-22T07:09:05;37.30;;;13.77;;
69998;SDS011;57339;52.156;5.372;2024-03-22T07:11:31;24.92;;;10.35;;
69998;SDS011;57339;52.156;5.372;2024-03-22T07:13:57;41.88;;;15.18;;
69998;SDS011;57339;52.156;5.372;2024-03-22T07:16:23;45.47;;;16.70;;
69998;SDS011;57339;52.156;5.372;2024-03-22T07:18:49;41.42;;;16.38;;
69998;SDS011;57339;52.156;5.372;2024-03-22T07:21:15;31.80;;;12.93;;
69998;SDS011;57339;52.156;5.372;2024-03-22T07:23:44;35.17;;;14.50;;
69998;SDS011;57339;52.156;5.372;2024-03-22T07:26:10;39.22;;;15.38;;
69998;SDS011;57339;52.156;5.372;2024-03-22T07:28:36;27.00;;;10.85;;
69998;SDS011;57339;52.156;5.372;2024-03-22T07:31:01;31.53;;;11.50;;
69998;SDS011;57339;52.156;5.372;2024-03-22T07:33:27;31.65;;;12.18;;
69998;SDS011;57339;52.156;5.372;2024-03-22T07:35:53;26.55;;;10.50;;
69998;SDS011;57339;52.156;5.372;2024-03-22T07:38:19;32.47;;;14.13;;
69998;SDS011;57339;52.156;5.372;2024-03-22T07:40:46;33.20;;;11.60;;
69998;SDS011;57339;52.156;5.372;2024-03-22T07:43:11;41.45;;;15.85;;
69998;SDS011;57339;52.156;5.372;2024-03-22T07:45:38;42.22;;;16.13;;
69998;SDS011;57339;52.156;5.372;2024-03-22T07:48:04;35.93;;;14.73;;
69998;SDS011;57339;52.156;5.372;2024-03-22T07:50:30;35.77;;;13.83;;
69998;SDS011;57339;52.156;5.372;2024-03-22T07:52:56;35.17;;;13.32;;
69998;SDS011;57339;52.156;5.372;2024-03-22T07:55:22;36.80;;;12.85;;
69998;SDS011;57339;52.156;5.372;2024-03-22T07:57:48;32.70;;;13.10;;
69998;SDS011;57339;52.156;5.372;2024-03-22T08:00:14;28.17;;;11.03;;
69998;SDS011;57339;52.156;5.372;2024-03-22T08:02:41;26.10;;;10.20;;
69998;SDS011;57339;52.156;5.372;2024-03-22T08:05:07;33.22;;;13.63;;
69998;SDS011;57339;52.156;5.372;2024-03-22T08:07:33;40.90;;;13.67;;
69998;SDS011;57339;52.156;5.372;2024-03-22T08:09:58;34.00;;;11.73;;
69998;SDS011;57339;52.156;5.372;2024-03-22T08:12:24;38.67;;;14.60;;
69998;SDS011;57339;52.156;5.372;2024-03-22T08:14:50;32.13;;;14.10;;
69998;SDS011;57339;52.156;5.372;2024-03-22T08:17:16;41.38;;;14.88;;
69998;SDS011;57339;52.156;5.372;2024-03-22T08:19:42;31.58;;;11.65;;
69998;SDS011;57339;52.156;5.372;2024-03-22T08:22:08;36.40;;;15.67;;
69998;SDS011;57339;52.156;5.372;2024-03-22T08:24:34;33.70;;;13.70;;
69998;SDS011;57339;52.156;5.372;2024-03-22T08:26:59;35.63;;;12.60;;
69998;SDS011;57339;52.156;5.372;2024-03-22T08:29:25;40.43;;;15.30;;
69998;SDS011;57339;52.156;5.372;2024-03-22T08:31:51;32.88;;;12.38;;
69998;SDS011;57339;52.156;5.372;2024-03-22T08:34:17;38.65;;;13.52;;
69998;SDS011;57339;52.156;5.372;2024-03-22T08:36:43;43.97;;;16.83;;
69998;SDS011;57339;52.156;5.372;2024-03-22T08:39:09;31.70;;;11.17;;
69998;SDS011;57339;52.156;5.372;2024-03-22T08:41:36;18.30;;;8.10;;
69998;SDS011;57339;52.156;5.372;2024-03-22T08:44:02;25.63;;;10.98;;
69998;SDS011;57339;52.156;5.372;2024-03-22T08:46:28;27.20;;;10.07;;
69998;SDS011;57339;52.156;5.372;2024-03-22T08:48:54;28.87;;;10.93;;
69998;SDS011;57339;52.156;5.372;2024-03-22T08:51:21;27.48;;;10.73;;
69998;SDS011;57339;52.156;5.372;2024-03-22T08:53:47;27.90;;;10.98;;
69998;SDS011;57339;52.156;5.372;2024-03-22T08:56:13;25.10;;;9.77;;
69998;SDS011;57339;52.156;5.372;2024-03-22T08:58:39;23.38;;;8.52;;
69998;SDS011;57339;52.156;5.372;2024-03-22T09:01:05;23.02;;;8.30;;
69998;SDS011;57339;52.156;5.372;2024-03-22T09:03:31;32.27;;;10.63;;
69998;SDS011;57339;52.156;5.372;2024-03-22T09:05:56;22.60;;;9.43;;
69998;SDS011;57339;52.156;5.372;2024-03-22T09:08:22;154.90;;;96.00;;
69998;SDS011;57339;52.156;5.372;2024-03-22T09:10:48;26.42;;;11.82;;
69998;SDS011;57339;52.156;5.372;2024-03-22T09:13:14;25.10;;;8.50;;
69998;SDS011;57339;52.156;5.372;2024-03-22T09:15:40;30.70;;;12.00;;
69998;SDS011;57339;52.156;5.372;2024-03-22T09:18:06;29.85;;;10.60;;
69998;SDS011;57339;52.156;5.372;2024-03-22T09:20:32;34.75;;;15.43;;
69998;SDS011;57339;52.156;5.372;2024-03-22T09:22:59;21.70;;;7.70;;
69998;SDS011;57339;52.156;5.372;2024-03-22T09:25:25;30.27;;;11.45;;
69998;SDS011;57339;52.156;5.372;2024-03-22T09:27:50;27.20;;;10.68;;
69998;SDS011;57339;52.156;5.372;2024-03-22T09:30:16;26.17;;;9.90;;
69998;SDS011;57339;52.156;5.372;2024-03-22T09:32:42;24.83;;;9.82;;
69998;SDS011;57339;52.156;5.372;2024-03-22T09:35:08;25.70;;;12.27;;
69998;SDS011;57339;52.156;5.372;2024-03-22T09:37:35;19.15;;;8.00;;
69998;SDS011;57339;52.156;5.372;2024-03-22T09:40:01;26.13;;;10.43;;
69998;SDS011;57339;52.156;5.372;2024-03-22T09:42:27;18.98;;;8.35;;
69998;SDS011;57339;52.156;5.372;2024-03-22T09:44:57;24.85;;;10.23;;
69998;SDS011;57339;52.156;5.372;2024-03-22T09:47:23;25.33;;;9.52;;
69998;SDS011;57339;52.156;5.372;2024-03-22T09:49:50;23.07;;;9.27;;
69998;SDS011;57339;52.156;5.372;2024-03-22T09:52:16;21.70;;;9.02;;
69998;SDS011;57339;52.156;5.372;2024-03-22T09:54:45;28.17;;;10.68;;
69998;SDS011;57339;52.156;5.372;2024-03-22T09:57:11;24.77;;;9.40;;
69998;SDS011;57339;52.156;5.372;2024-03-22T09:59:39;17.30;;;7.18;;
69998;SDS011;57339;52.156;5.372;2024-03-22T10:02:05;18.57;;;7.73;;
69998;SDS011;57339;52.156;5.372;2024-03-22T10:04:35;25.65;;;11.13;;
69998;SDS011;57339;52.156;5.372;2024-03-22T10:07:02;20.23;;;9.23;;
69998;SDS011;57339;52.156;5.372;2024-03-22T10:09:28;25.17;;;10.40;;
69998;SDS011;57339;52.156;5.372;2024-03-22T10:11:55;15.80;;;7.50;;
69998;SDS011;57339;52.156;5.372;2024-03-22T10:14:21;22.20;;;9.05;;
69998;SDS011;57339;52.156;5.372;2024-03-22T10:16:47;15.40;;;6.63;;
69998;SDS011;57339;52.156;5.372;2024-03-22T10:19:13;16.30;;;7.43;;
69998;SDS011;57339;52.156;5.372;2024-03-22T10:21:39;22.57;;;9.20;;
69998;SDS011;57339;52.156;5.372;2024-03-22T10:24:05;23.45;;;9.40;;
69998;SDS011;57339;52.156;5.372;2024-03-22T10:26:33;22.58;;;9.88;;
69998;SDS011;57339;52.156;5.372;2024-03-22T10:28:59;26.15;;;11.85;;
69998;SDS011;57339;52.156;5.372;2024-03-22T10:31:24;17.03;;;7.73;;
69998;SDS011;57339;52.156;5.372;2024-03-22T10:33:51;13.15;;;6.28;;
69998;SDS011;57339;52.156;5.372;2024-03-22T10:36:19;18.30;;;8.02;;
69998;SDS011;57339;52.156;5.372;2024-03-22T10:38:46;18.02;;;8.13;;
69998;SDS011;57339;52.156;5.372;2024-03-22T10:41:14;18.13;;;8.37;;
69998;SDS011;57339;52.156;5.372;2024-03-22T10:43:40;14.95;;;6.47;;
69998;SDS011;57339;52.156;5.372;2024-03-22T10:46:06;16.52;;;6.72;;
69998;SDS011;57339;52.156;5.372;2024-03-22T10:48:37;16.75;;;7.28;;
69998;SDS011;57339;52.156;5.372;2024-03-22T10:51:04;16.40;;;7.73;;
69998;SDS011;57339;52.156;5.372;2024-03-22T10:53:32;19.40;;;8.00;;
69998;SDS011;57339;52.156;5.372;2024-03-22T10:56:00;20.20;;;8.23;;
69998;SDS011;57339;52.156;5.372;2024-03-22T10:58:27;17.98;;;6.82;;
69998;SDS011;57339;52.156;5.372;2024-03-22T11:00:54;19.10;;;7.93;;
69998;SDS011;57339;52.156;5.372;2024-03-22T11:03:21;20.13;;;9.53;;
69998;SDS011;57339;52.156;5.372;2024-03-22T11:05:48;20.30;;;8.70;;
69998;SDS011;57339;52.156;5.372;2024-03-22T11:10:56;15.82;;;6.93;;
69998;SDS011;57339;52.156;5.372;2024-03-22T11:13:35;17.88;;;6.95;;
69998;SDS011;57339;52.156;5.372;2024-03-22T11:16:02;18.53;;;8.20;;
69998;SDS011;57339;52.156;5.372;2024-03-22T11:18:28;15.55;;;6.88;;
69998;SDS011;57339;52.156;5.372;2024-03-22T11:20:54;18.23;;;7.72;;
69998;SDS011;57339;52.156;5.372;2024-03-22T11:23:23;16.45;;;7.43;;
69998;SDS011;57339;52.156;5.372;2024-03-22T11:25:49;17.90;;;7.43;;
69998;SDS011;57339;52.156;5.372;2024-03-22T11:28:15;18.83;;;8.25;;
69998;SDS011;57339;52.156;5.372;2024-03-22T11:30:41;16.02;;;6.35;;
69998;SDS011;57339;52.156;5.372;2024-03-22T11:33:07;15.65;;;7.25;;
69998;SDS011;57339;52.156;5.372;2024-03-22T11:35:33;12.13;;;5.13;;
69998;SDS011;57339;52.156;5.372;2024-03-22T11:37:59;14.75;;;6.22;;
69998;SDS011;57339;52.156;5.372;2024-03-22T11:40:25;12.88;;;5.35;;
69998;SDS011;57339;52.156;5.372;2024-03-22T11:42:53;16.08;;;5.38;;
69998;SDS011;57339;52.156;5.372;2024-03-22T11:45:23;14.80;;;5.32;;
69998;SDS011;57339;52.156;5.372;2024-03-22T11:47:51;15.17;;;6.13;;
69998;SDS011;57339;52.156;5.372;2024-03-22T11:50:17;15.30;;;5.35;;
69998;SDS011;57339;52.156;5.372;2024-03-22T11:52:43;11.60;;;4.97;;
69998;SDS011;57339;52.156;5.372;2024-03-22T11:55:10;11.30;;;4.88;;
69998;SDS011;57339;52.156;5.372;2024-03-22T11:57:36;11.25;;;4.78;;
69998;SDS011;57339;52.156;5.372;2024-03-22T12:00:03;12.07;;;5.10;;
69998;SDS011;57339;52.156;5.372;2024-03-22T12:02:31;8.52;;;3.60;;
69998;SDS011;57339;52.156;5.372;2024-03-22T12:04:57;13.07;;;5.00;;
69998;SDS011;57339;52.156;5.372;2024-03-22T12:07:23;11.65;;;5.03;;
69998;SDS011;57339;52.156;5.372;2024-03-22T12:09:49;9.52;;;3.55;;
69998;SDS011;57339;52.156;5.372;2024-03-22T12:12:15;11.20;;;4.70;;
69998;SDS011;57339;52.156;5.372;2024-03-22T12:14:41;11.80;;;5.05;;
69998;SDS011;57339;52.156;5.372;2024-03-22T12:17:07;12.82;;;4.95;;
69998;SDS011;57339;52.156;5.372;2024-03-22T12:19:33;12.47;;;4.87;;
69998;SDS011;57339;52.156;5.372;2024-03-22T12:21:59;14.70;;;6.43;;
69998;SDS011;57339;52.156;5.372;2024-03-22T12:24:26;12.27;;;4.63;;
69998;SDS011;57339;52.156;5.372;2024-03-22T12:26:52;16.00;;;7.22;;
69998;SDS011;57339;52.156;5.372;2024-03-22T12:29:20;15.85;;;6.57;;
69998;SDS011;57339;52.156;5.372;2024-03-22T12:31:55;10.60;;;4.20;;
69998;SDS011;57339;52.156;5.372;2024-03-22T12:34:21;11.52;;;4.63;;
69998;SDS011;57339;52.156;5.372;2024-03-22T12:36:47;15.40;;;5.95;;
69998;SDS011;57339;52.156;5.372;2024-03-22T12:39:13;19.20;;;8.55;;
69998;SDS011;57339;52.156;5.372;2024-03-22T12:41:39;21.00;;;8.70;;
69998;SDS011;57339;52.156;5.372;2024-03-22T12:44:05;18.25;;;7.32;;
69998;SDS011;57339;52.156;5.372;2024-03-22T12:46:31;22.73;;;9.43;;
69998;SDS011;57339;52.156;5.372;2024-03-22T12:48:59;18.83;;;8.10;;
69998;SDS011;57339;52.156;5.372;2024-03-22T12:51:24;21.33;;;8.90;;
69998;SDS011;57339;52.156;5.372;2024-03-22T12:53:50;21.92;;;9.07;;
69998;SDS011;57339;52.156;5.372;2024-03-22T12:56:19;24.48;;;10.35;;
69998;SDS011;57339;52.156;5.372;2024-03-22T12:58:46;23.80;;;9.90;;
69998;SDS011;57339;52.156;5.372;2024-03-22T13:01:13;16.33;;;7.18;;
69998;SDS011;57339;52.156;5.372;2024-03-22T13:03:39;18.23;;;8.35;;
69998;SDS011;57339;52.156;5.372;2024-03-22T13:06:04;24.50;;;9.98;;
69998;SDS011;57339;52.156;5.372;2024-03-22T13:08:31;21.23;;;8.43;;
69998;SDS011;57339;52.156;5.372;2024-03-22T13:10:58;21.67;;;8.43;;
69998;SDS011;57339;52.156;5.372;2024-03-22T13:13:23;23.60;;;10.27;;
69998;SDS011;57339;52.156;5.372;2024-03-22T13:15:49;21.55;;;8.60;;
69998;SDS011;57339;52.156;5.372;2024-03-22T13:18:15;16.10;;;7.00;;
69998;SDS011;57339;52.156;5.372;2024-03-22T13:20:41;23.77;;;8.83;;
69998;SDS011;57339;52.156;5.372;2024-03-22T13:23:07;19.33;;;8.98;;
69998;SDS011;57339;52.156;5.372;2024-03-22T13:25:36;21.10;;;8.43;;
69998;SDS011;57339;52.156;5.372;2024-03-22T13:28:03;25.25;;;9.93;;
69998;SDS011;57339;52.156;5.372;2024-03-22T13:30:29;23.73;;;9.27;;
69998;SDS011;57339;52.156;5.372;2024-03-22T13:32:55;20.00;;;8.57;;
69998;SDS011;57339;52.156;5.372;2024-03-22T13:35:21;23.00;;;9.70;;
69998;SDS011;57339;52.156;5.372;2024-03-22T13:37:47;25.48;;;9.77;;
69998;SDS011;57339;52.156;5.372;2024-03-22T13:40:13;22.80;;;10.10;;
69998;SDS011;57339;52.156;5.372;2024-03-22T13:42:39;28.30;;;10.65;;
69998;SDS011;57339;52.156;5.372;2024-03-22T13:45:05;22.85;;;8.60;;
69998;SDS011;57339;52.156;5.372;2024-03-22T13:47:31;24.80;;;9.83;;
69998;SDS011;57339;52.156;5.372;2024-03-22T13:49:57;20.83;;;9.25;;
69998;SDS011;57339;52.156;5.372;2024-03-22T13:52:23;19.90;;;7.78;;
69998;SDS011;57339;52.156;5.372;2024-03-22T13:54:49;27.77;;;11.35;;
69998;SDS011;57339;52.156;5.372;2024-03-22T13:57:15;23.23;;;9.87;;
69998;SDS011;57339;52.156;5.372;2024-03-22T13:59:41;27.17;;;11.20;;
69998;SDS011;57339;52.156;5.372;2024-03-22T14:02:07;25.05;;;10.98;;
69998;SDS011;57339;52.156;5.372;2024-03-22T14:04:34;21.55;;;10.88;;
69998;SDS011;57339;52.156;5.372;2024-03-22T14:07:00;24.47;;;10.30;;
69998;SDS011;57339;52.156;5.372;2024-03-22T14:09:26;31.58;;;11.75;;
69998;SDS011;57339;52.156;5.372;2024-03-22T14:11:52;26.85;;;11.02;;
69998;SDS011;57339;52.156;5.372;2024-03-22T14:14:17;24.23;;;9.27;;
69998;SDS011;57339;52.156;5.372;2024-03-22T14:16:44;26.63;;;10.63;;
69998;SDS011;57339;52.156;5.372;2024-03-22T14:19:10;28.50;;;11.43;;
69998;SDS011;57339;52.156;5.372;2024-03-22T14:21:36;32.45;;;10.95;;
69998;SDS011;57339;52.156;5.372;2024-03-22T14:24:02;29.05;;;11.43;;